WetterOnline ( https://www.wetteronline.de )

Wetter aktuell Bad Wilsnack

Aktuelles Wetter: Kyritz (42m)

6-stündlich | Neueste Meldungen
Ortszeit Temperatur Wetter
So, 20.09. 8:00 7.7° C wolkenlos
So, 20.09. 2:00 10.1° C wolkenlos
Sa, 19.09. 20:00 15.4° C bedeckt
Sa, 19.09. 14:00 20.0° C leicht bewölkt
Sa, 19.09. 8:00 5.7° C wolkig
Sa, 19.09. 2:00 6.1° C leicht bewölkt
Fr, 18.09. 20:00 12.0° C wolkig
Fr, 18.09. 14:00 18.7° C leicht bewölkt
Ortszeit Temperatur Wetter
So, 20.09. 9:30 12.5° C leicht bewölkt
So, 20.09. 9:20 12.5° C leicht bewölkt
So, 20.09. 9:10 12.1° C leicht bewölkt
So, 20.09. 9:00 11.1° C leicht bewölkt
So, 20.09. 8:50 11.1° C leicht bewölkt
So, 20.09. 8:40 10.7° C leicht bewölkt
So, 20.09. 8:30 9.8° C leicht bewölkt
So, 20.09. 8:00 7.7° C wolkenlos
Ortszeit Relative Feuchte Sichtweite
So, 20.09. 8:00 82% 26 km
So, 20.09. 2:00 72% 25 km
Sa, 19.09. 20:00 51% 25 km
Sa, 19.09. 14:00 36% 26 km
Sa, 19.09. 8:00 88% 19 km
Sa, 19.09. 2:00 84% 26 km
Fr, 18.09. 20:00 63% 10 km
Fr, 18.09. 14:00 40% 35 km
Ortszeit Relative Feuchte Sichtweite
So, 20.09. 9:30 63% 22 km
So, 20.09. 9:20 63% -
So, 20.09. 9:10 64% -
So, 20.09. 9:00 68% 26 km
So, 20.09. 8:50 68% -
So, 20.09. 8:40 70% -
So, 20.09. 8:30 74% 29 km
So, 20.09. 8:00 82% 26 km
Ortszeit Niederschlagsmenge Niederschlagsart
So, 20.09. 8:00 0.0 l/m2 in 12 Std. -
So, 20.09. 2:00 0.0 l/m2 in 6 Std. -
Sa, 19.09. 20:00 0.0 l/m2 in 12 Std. -
Sa, 19.09. 14:00 0.0 l/m2 in 6 Std. -
Sa, 19.09. 8:00 0.0 l/m2 in 12 Std. -
Sa, 19.09. 2:00 0.0 l/m2 in 6 Std. -
Fr, 18.09. 20:00 0.0 l/m2 in 12 Std. -
Fr, 18.09. 14:00 0.0 l/m2 in 6 Std. -
Ortszeit Niederschlagsmenge Niederschlagsart
So, 20.09. 9:30 0.0 l/m2 in 1 Std. -
So, 20.09. 9:20 keine Meldung -
So, 20.09. 9:10 keine Meldung -
So, 20.09. 9:00 0.0 l/m2 in 1 Std. -
So, 20.09. 8:50 keine Meldung -
So, 20.09. 8:40 keine Meldung -
So, 20.09. 8:30 0.0 l/m2 in 1 Std. -
So, 20.09. 8:00 0.0 l/m2 in 1 Std. -
Ortszeit Stärke Spitze Richtung
km/h Bft. km/h Grad Sektor
So, 20.09. 8:00 7 2 14 30° NO
So, 20.09. 2:00 9 2 19 60° NO
Sa, 19.09. 20:00 9 2 33 70° O
Sa, 19.09. 14:00 15 3 26 100° O
Sa, 19.09. 8:00 7 2 11 20° N
Sa, 19.09. 2:00 7 2 11 60° NO
Fr, 18.09. 20:00 7 2 18 110° O
Fr, 18.09. 14:00 4 1 14 130° SO
Ortszeit Stärke Spitze Richtung
km/h Bft. km/h Grad Sektor
So, 20.09. 9:30 7 2 14 60° NO
So, 20.09. 9:20 7 2 - 60° NO
So, 20.09. 9:10 9 2 - 60° NO
So, 20.09. 9:00 6 1 13 50° NO
So, 20.09. 8:50 6 1 - 50° NO
So, 20.09. 8:40 6 1 - 60° NO
So, 20.09. 8:30 6 1 11 50° NO
So, 20.09. 8:00 7 2 11 30° NO
Ortszeit Untergrenze Bedeckung Gattung
total tief tief mittel hoch
So, 20.09. 8:00 8700 m 0/8 0/8 - - -
So, 20.09. 2:00 - 0/8 0/8 - - -
Sa, 19.09. 20:00 6000 m 8/8 8/8 - - -
Sa, 19.09. 14:00 8100 m 7/8 0/8 - - -
Sa, 19.09. 8:00 9000 m 7/8 0/8 - - -
Sa, 19.09. 2:00 12000 m 6/8 0/8 - - -
Fr, 18.09. 20:00 10500 m 8/8 0/8 - - -
Fr, 18.09. 14:00 12000 m 6/8 0/8 - - -
Ortszeit Bedeckungsgrad in Achtel und Wolkenuntergrenze
So, 20.09. 9:30 4(8400m)
So, 20.09. 9:20 4(8400m)
So, 20.09. 9:10 4(8700m)
So, 20.09. 9:00 4(8700m)
So, 20.09. 8:50 4(8700m)
So, 20.09. 8:40 2(8100m) 4(8700m)
So, 20.09. 8:30 6(8400m)
So, 20.09. 8:00 1(8700m)
Ortszeit Luftdruck NN (hPa) Tendenz (hPa in 3 Std.)
So, 20.09. 8:00 1021 + 0,2
So, 20.09. 2:00 1021 - 0,6
Sa, 19.09. 20:00 1021 - 0,7
Sa, 19.09. 14:00 1024 - 1,1
Sa, 19.09. 8:00 1026 - 0,1
Sa, 19.09. 2:00 1027 - 0,7
Fr, 18.09. 20:00 1027 - 0,7
Fr, 18.09. 14:00 1030 - 1,4
Ortszeit Luftdruck NN (hPa) Tendenz (hPa in 3 Std.)
So, 20.09. 9:30 1021 + 0,7
So, 20.09. 9:20 1021 keine Meldung
So, 20.09. 9:10 1021 keine Meldung
So, 20.09. 9:00 1021 + 0,6
So, 20.09. 8:50 1021 keine Meldung
So, 20.09. 8:40 1021 keine Meldung
So, 20.09. 8:30 1021 + 0,3
So, 20.09. 8:00 1021 + 0,2
Ortszeit Schneehöhe (cm)
So, 20.09. 8:00 -
So, 20.09. 2:00 -
Sa, 19.09. 20:00 -
Sa, 19.09. 14:00 -
Sa, 19.09. 8:00 -
Sa, 19.09. 2:00 -
Fr, 18.09. 20:00 -
Fr, 18.09. 14:00 -
Ortszeit Schneehöhe (cm)
So, 20.09. 9:30 -
So, 20.09. 9:20 -
So, 20.09. 9:10 -
So, 20.09. 9:00 -
So, 20.09. 8:50 -
So, 20.09. 8:40 -
So, 20.09. 8:30 -
So, 20.09. 8:00 -
Link zu dieser Seite / Seite empfehlen

Das Wetter in ...